sensor_id;sensor_type;location;lat;lon;timestamp;temperature;humidity
3156;DHT22;1588;50.892;7.082;2023-04-08T00:00:16;8.70;99.90
3156;DHT22;1588;50.892;7.082;2023-04-08T00:05:20;8.70;99.90
3156;DHT22;1588;50.892;7.082;2023-04-08T00:10:22;8.70;99.90
3156;DHT22;1588;50.892;7.082;2023-04-08T00:15:25;8.70;99.90
3156;DHT22;1588;50.892;7.082;2023-04-08T00:20:28;8.70;99.90
3156;DHT22;1588;50.892;7.082;2023-04-08T00:25:31;8.70;99.90
3156;DHT22;1588;50.892;7.082;2023-04-08T00:30:33;8.70;99.90
3156;DHT22;1588;50.892;7.082;2023-04-08T00:35:37;8.60;99.90
3156;DHT22;1588;50.892;7.082;2023-04-08T00:40:40;8.60;99.90
3156;DHT22;1588;50.892;7.082;2023-04-08T00:45:42;8.60;99.90
3156;DHT22;1588;50.892;7.082;2023-04-08T00:50:45;8.60;99.90
3156;DHT22;1588;50.892;7.082;2023-04-08T00:55:49;8.60;99.90
3156;DHT22;1588;50.892;7.082;2023-04-08T01:01:01;8.70;99.90
3156;DHT22;1588;50.892;7.082;2023-04-08T01:06:12;8.60;99.90
3156;DHT22;1588;50.892;7.082;2023-04-08T01:11:17;8.60;99.90
3156;DHT22;1588;50.892;7.082;2023-04-08T01:16:23;8.60;99.90
3156;DHT22;1588;50.892;7.082;2023-04-08T01:21:28;8.70;99.90
3156;DHT22;1588;50.892;7.082;2023-04-08T01:26:32;8.60;99.90
3156;DHT22;1588;50.892;7.082;2023-04-08T01:31:35;8.70;99.90
3156;DHT22;1588;50.892;7.082;2023-04-08T01:36:38;8.60;99.90
3156;DHT22;1588;50.892;7.082;2023-04-08T01:41:44;8.60;99.90
3156;DHT22;1588;50.892;7.082;2023-04-08T01:46:48;8.60;99.90
3156;DHT22;1588;50.892;7.082;2023-04-08T01:51:52;8.60;99.90
3156;DHT22;1588;50.892;7.082;2023-04-08T01:56:56;8.60;99.90
3156;DHT22;1588;50.892;7.082;2023-04-08T02:02:04;8.60;99.90
3156;DHT22;1588;50.892;7.082;2023-04-08T02:07:08;8.50;99.90
3156;DHT22;1588;50.892;7.082;2023-04-08T02:12:12;8.50;99.90
3156;DHT22;1588;50.892;7.082;2023-04-08T02:17:20;8.50;99.90
3156;DHT22;1588;50.892;7.082;2023-04-08T02:22:29;8.40;99.90
3156;DHT22;1588;50.892;7.082;2023-04-08T02:27:34;8.40;99.90
3156;DHT22;1588;50.892;7.082;2023-04-08T02:32:37;8.40;99.90
3156;DHT22;1588;50.892;7.082;2023-04-08T02:37:40;8.40;99.90
3156;DHT22;1588;50.892;7.082;2023-04-08T02:42:44;8.40;99.90
3156;DHT22;1588;50.892;7.082;2023-04-08T02:47:46;8.40;99.90
3156;DHT22;1588;50.892;7.082;2023-04-08T02:52:48;8.40;99.90
3156;DHT22;1588;50.892;7.082;2023-04-08T02:57:52;8.40;99.90
3156;DHT22;1588;50.892;7.082;2023-04-08T03:02:57;8.40;99.90
3156;DHT22;1588;50.892;7.082;2023-04-08T03:07:59;8.40;99.90
3156;DHT22;1588;50.892;7.082;2023-04-08T03:13:03;8.40;99.90
3156;DHT22;1588;50.892;7.082;2023-04-08T03:18:06;8.40;99.90
3156;DHT22;1588;50.892;7.082;2023-04-08T03:23:09;8.40;99.90
3156;DHT22;1588;50.892;7.082;2023-04-08T03:28:15;8.30;99.90
3156;DHT22;1588;50.892;7.082;2023-04-08T03:33:18;8.30;99.90
3156;DHT22;1588;50.892;7.082;2023-04-08T03:38:20;8.40;99.90
3156;DHT22;1588;50.892;7.082;2023-04-08T03:43:24;8.40;99.90
3156;DHT22;1588;50.892;7.082;2023-04-08T03:48:28;8.40;99.90
3156;DHT22;1588;50.892;7.082;2023-04-08T03:53:30;8.30;99.90
3156;DHT22;1588;50.892;7.082;2023-04-08T03:58:34;8.30;99.90
3156;DHT22;1588;50.892;7.082;2023-04-08T04:03:36;8.30;99.90
3156;DHT22;1588;50.892;7.082;2023-04-08T04:08:39;8.30;99.90
3156;DHT22;1588;50.892;7.082;2023-04-08T04:13:43;8.30;99.90
3156;DHT22;1588;50.892;7.082;2023-04-08T04:18:46;8.30;99.90
3156;DHT22;1588;50.892;7.082;2023-04-08T04:23:48;8.30;99.90
3156;DHT22;1588;50.892;7.082;2023-04-08T04:28:52;8.30;99.90
3156;DHT22;1588;50.892;7.082;2023-04-08T04:33:54;8.30;99.90
3156;DHT22;1588;50.892;7.082;2023-04-08T04:38:56;8.30;99.90
3156;DHT22;1588;50.892;7.082;2023-04-08T04:44:00;8.30;99.90
3156;DHT22;1588;50.892;7.082;2023-04-08T04:49:02;8.30;99.90
3156;DHT22;1588;50.892;7.082;2023-04-08T04:54:04;8.30;99.90
3156;DHT22;1588;50.892;7.082;2023-04-08T04:59:08;8.30;99.90
3156;DHT22;1588;50.892;7.082;2023-04-08T05:04:10;8.30;99.90
3156;DHT22;1588;50.892;7.082;2023-04-08T05:09:16;8.30;99.90
3156;DHT22;1588;50.892;7.082;2023-04-08T05:14:19;8.30;99.90
3156;DHT22;1588;50.892;7.082;2023-04-08T05:19:22;8.20;99.90
3156;DHT22;1588;50.892;7.082;2023-04-08T05:24:24;8.20;99.90
3156;DHT22;1588;50.892;7.082;2023-04-08T05:29:28;8.20;99.90
3156;DHT22;1588;50.892;7.082;2023-04-08T05:34:31;8.30;99.90
3156;DHT22;1588;50.892;7.082;2023-04-08T05:39:33;8.30;99.90
3156;DHT22;1588;50.892;7.082;2023-04-08T05:44:40;8.30;99.90
3156;DHT22;1588;50.892;7.082;2023-04-08T05:49:43;8.30;99.90
3156;DHT22;1588;50.892;7.082;2023-04-08T05:54:46;8.30;99.90
3156;DHT22;1588;50.892;7.082;2023-04-08T05:59:50;8.30;99.90
3156;DHT22;1588;50.892;7.082;2023-04-08T06:04:53;8.20;99.90
3156;DHT22;1588;50.892;7.082;2023-04-08T06:09:55;8.30;99.90
3156;DHT22;1588;50.892;7.082;2023-04-08T06:14:59;8.30;99.90
3156;DHT22;1588;50.892;7.082;2023-04-08T06:20:02;8.30;99.90
3156;DHT22;1588;50.892;7.082;2023-04-08T06:25:05;8.40;99.90
3156;DHT22;1588;50.892;7.082;2023-04-08T06:30:09;8.40;99.90
3156;DHT22;1588;50.892;7.082;2023-04-08T06:35:16;8.40;99.90
3156;DHT22;1588;50.892;7.082;2023-04-08T06:40:19;8.50;99.90
3156;DHT22;1588;50.892;7.082;2023-04-08T06:45:23;8.50;99.90
3156;DHT22;1588;50.892;7.082;2023-04-08T06:50:26;8.60;99.90
3156;DHT22;1588;50.892;7.082;2023-04-08T06:55:29;8.80;99.90
3156;DHT22;1588;50.892;7.082;2023-04-08T07:00:33;8.90;99.90
3156;DHT22;1588;50.892;7.082;2023-04-08T07:05:36;9.00;99.90
3156;DHT22;1588;50.892;7.082;2023-04-08T07:10:38;9.10;99.90
3156;DHT22;1588;50.892;7.082;2023-04-08T07:15:43;9.20;99.90
3156;DHT22;1588;50.892;7.082;2023-04-08T07:20:49;9.40;99.90
3156;DHT22;1588;50.892;7.082;2023-04-08T07:25:53;9.40;99.90
3156;DHT22;1588;50.892;7.082;2023-04-08T07:31:08;9.60;99.90
3156;DHT22;1588;50.892;7.082;2023-04-08T07:36:12;9.70;99.90
3156;DHT22;1588;50.892;7.082;2023-04-08T07:41:20;9.80;99.90
3156;DHT22;1588;50.892;7.082;2023-04-08T07:46:25;10.00;99.90
3156;DHT22;1588;50.892;7.082;2023-04-08T07:51:35;9.90;99.90
3156;DHT22;1588;50.892;7.082;2023-04-08T07:56:44;9.80;99.90
3156;DHT22;1588;50.892;7.082;2023-04-08T08:01:49;10.00;99.90
3156;DHT22;1588;50.892;7.082;2023-04-08T08:06:58;10.20;99.90
3156;DHT22;1588;50.892;7.082;2023-04-08T08:12:01;10.20;99.90
3156;DHT22;1588;50.892;7.082;2023-04-08T08:17:07;10.30;99.90
3156;DHT22;1588;50.892;7.082;2023-04-08T08:22:19;10.40;99.90
3156;DHT22;1588;50.892;7.082;2023-04-08T08:27:25;10.20;99.90
3156;DHT22;1588;50.892;7.082;2023-04-08T08:32:33;10.20;99.90
3156;DHT22;1588;50.892;7.082;2023-04-08T08:37:37;10.40;99.90
3156;DHT22;1588;50.892;7.082;2023-04-08T08:42:41;10.50;99.90
3156;DHT22;1588;50.892;7.082;2023-04-08T08:47:45;10.40;99.90
3156;DHT22;1588;50.892;7.082;2023-04-08T08:52:50;10.50;99.90
3156;DHT22;1588;50.892;7.082;2023-04-08T08:57:56;10.70;99.90
3156;DHT22;1588;50.892;7.082;2023-04-08T09:03:16;10.80;99.90
3156;DHT22;1588;50.892;7.082;2023-04-08T09:08:26;10.50;99.90
3156;DHT22;1588;50.892;7.082;2023-04-08T09:13:34;10.30;99.90
3156;DHT22;1588;50.892;7.082;2023-04-08T09:18:40;10.30;99.90
3156;DHT22;1588;50.892;7.082;2023-04-08T09:23:45;10.50;99.90
3156;DHT22;1588;50.892;7.082;2023-04-08T09:28:59;10.60;99.90
3156;DHT22;1588;50.892;7.082;2023-04-08T09:34:09;10.90;99.90
3156;DHT22;1588;50.892;7.082;2023-04-08T09:39:13;11.10;99.90
3156;DHT22;1588;50.892;7.082;2023-04-08T09:44:17;11.40;99.90
3156;DHT22;1588;50.892;7.082;2023-04-08T09:49:26;11.60;99.90
3156;DHT22;1588;50.892;7.082;2023-04-08T09:54:34;12.60;99.90
3156;DHT22;1588;50.892;7.082;2023-04-08T09:59:44;12.70;99.90
3156;DHT22;1588;50.892;7.082;2023-04-08T10:04:52;12.40;99.90
3156;DHT22;1588;50.892;7.082;2023-04-08T10:09:56;12.30;99.90
3156;DHT22;1588;50.892;7.082;2023-04-08T10:15:20;12.30;99.90
3156;DHT22;1588;50.892;7.082;2023-04-08T10:20:44;12.20;99.90
3156;DHT22;1588;50.892;7.082;2023-04-08T10:25:49;12.00;99.90
3156;DHT22;1588;50.892;7.082;2023-04-08T10:30:53;12.00;99.90
3156;DHT22;1588;50.892;7.082;2023-04-08T10:36:07;12.00;99.90
3156;DHT22;1588;50.892;7.082;2023-04-08T10:41:12;12.00;99.90
3156;DHT22;1588;50.892;7.082;2023-04-08T10:46:21;12.20;99.90
3156;DHT22;1588;50.892;7.082;2023-04-08T10:51:30;12.40;99.90
3156;DHT22;1588;50.892;7.082;2023-04-08T10:56:34;12.80;99.90
3156;DHT22;1588;50.892;7.082;2023-04-08T11:01:38;13.00;99.90
3156;DHT22;1588;50.892;7.082;2023-04-08T11:06:46;13.10;99.90
3156;DHT22;1588;50.892;7.082;2023-04-08T11:11:49;12.90;99.90
3156;DHT22;1588;50.892;7.082;2023-04-08T11:16:51;13.10;99.90
3156;DHT22;1588;50.892;7.082;2023-04-08T11:21:55;12.90;99.90
3156;DHT22;1588;50.892;7.082;2023-04-08T11:26:59;12.90;99.90
3156;DHT22;1588;50.892;7.082;2023-04-08T11:32:03;12.90;99.90
3156;DHT22;1588;50.892;7.082;2023-04-08T11:37:17;12.70;99.90
3156;DHT22;1588;50.892;7.082;2023-04-08T11:42:26;12.70;99.90
3156;DHT22;1588;50.892;7.082;2023-04-08T11:47:32;12.60;99.90
3156;DHT22;1588;50.892;7.082;2023-04-08T11:52:45;12.50;99.90
3156;DHT22;1588;50.892;7.082;2023-04-08T11:57:48;12.50;99.90
3156;DHT22;1588;50.892;7.082;2023-04-08T12:02:51;12.70;99.90
3156;DHT22;1588;50.892;7.082;2023-04-08T12:07:55;13.00;99.90
3156;DHT22;1588;50.892;7.082;2023-04-08T12:12:58;13.30;99.90
3156;DHT22;1588;50.892;7.082;2023-04-08T12:18:00;13.50;99.90
3156;DHT22;1588;50.892;7.082;2023-04-08T12:23:04;13.40;99.90
3156;DHT22;1588;50.892;7.082;2023-04-08T12:28:06;13.40;99.90
3156;DHT22;1588;50.892;7.082;2023-04-08T12:33:09;13.50;99.90
3156;DHT22;1588;50.892;7.082;2023-04-08T12:38:14;13.50;99.90
3156;DHT22;1588;50.892;7.082;2023-04-08T12:43:17;13.40;99.90
3156;DHT22;1588;50.892;7.082;2023-04-08T12:48:20;13.40;99.90
3156;DHT22;1588;50.892;7.082;2023-04-08T12:53:24;13.30;99.90
3156;DHT22;1588;50.892;7.082;2023-04-08T12:58:26;13.20;99.90
3156;DHT22;1588;50.892;7.082;2023-04-08T13:03:29;13.40;99.90
3156;DHT22;1588;50.892;7.082;2023-04-08T13:08:33;13.50;99.90
3156;DHT22;1588;50.892;7.082;2023-04-08T13:13:36;13.50;99.90
3156;DHT22;1588;50.892;7.082;2023-04-08T13:18:39;13.70;99.90
3156;DHT22;1588;50.892;7.082;2023-04-08T13:23:43;13.30;99.90
3156;DHT22;1588;50.892;7.082;2023-04-08T13:28:47;13.20;99.90
3156;DHT22;1588;50.892;7.082;2023-04-08T13:33:49;13.20;99.90
3156;DHT22;1588;50.892;7.082;2023-04-08T13:38:52;13.10;99.90
3156;DHT22;1588;50.892;7.082;2023-04-08T13:43:55;13.10;99.90
3156;DHT22;1588;50.892;7.082;2023-04-08T13:48:58;13.20;99.90
3156;DHT22;1588;50.892;7.082;2023-04-08T13:54:02;13.30;99.90
3156;DHT22;1588;50.892;7.082;2023-04-08T13:59:04;13.30;99.90
3156;DHT22;1588;50.892;7.082;2023-04-08T14:04:07;13.60;99.90
3156;DHT22;1588;50.892;7.082;2023-04-08T14:09:11;13.60;99.90
3156;DHT22;1588;50.892;7.082;2023-04-08T14:14:13;13.60;99.90
3156;DHT22;1588;50.892;7.082;2023-04-08T14:19:15;13.50;99.90
3156;DHT22;1588;50.892;7.082;2023-04-08T14:24:23;13.50;99.90
3156;DHT22;1588;50.892;7.082;2023-04-08T14:29:25;13.50;99.90
3156;DHT22;1588;50.892;7.082;2023-04-08T14:34:27;13.60;99.90
3156;DHT22;1588;50.892;7.082;2023-04-08T14:39:31;13.60;99.90
3156;DHT22;1588;50.892;7.082;2023-04-08T14:44:33;13.60;99.90
3156;DHT22;1588;50.892;7.082;2023-04-08T14:49:37;13.70;99.90
3156;DHT22;1588;50.892;7.082;2023-04-08T14:54:41;13.60;99.90
3156;DHT22;1588;50.892;7.082;2023-04-08T14:59:45;13.60;99.90
3156;DHT22;1588;50.892;7.082;2023-04-08T15:04:48;14.00;99.90
3156;DHT22;1588;50.892;7.082;2023-04-08T15:09:51;13.90;99.90
3156;DHT22;1588;50.892;7.082;2023-04-08T15:14:54;13.70;99.90
3156;DHT22;1588;50.892;7.082;2023-04-08T15:19:56;14.00;99.90
3156;DHT22;1588;50.892;7.082;2023-04-08T15:25:01;14.20;99.90
3156;DHT22;1588;50.892;7.082;2023-04-08T15:30:05;14.10;99.90
3156;DHT22;1588;50.892;7.082;2023-04-08T15:35:09;13.90;99.90
3156;DHT22;1588;50.892;7.082;2023-04-08T15:40:13;13.80;99.90
3156;DHT22;1588;50.892;7.082;2023-04-08T15:45:16;13.80;99.90
3156;DHT22;1588;50.892;7.082;2023-04-08T15:50:22;13.60;99.90
3156;DHT22;1588;50.892;7.082;2023-04-08T15:55:26;13.60;99.90
3156;DHT22;1588;50.892;7.082;2023-04-08T16:00:28;13.60;99.90
3156;DHT22;1588;50.892;7.082;2023-04-08T16:05:31;13.50;99.90
3156;DHT22;1588;50.892;7.082;2023-04-08T16:10:37;13.50;99.90
3156;DHT22;1588;50.892;7.082;2023-04-08T16:15:39;13.40;99.90
3156;DHT22;1588;50.892;7.082;2023-04-08T16:20:41;13.20;99.90
3156;DHT22;1588;50.892;7.082;2023-04-08T16:25:45;13.00;99.90
3156;DHT22;1588;50.892;7.082;2023-04-08T16:30:47;13.00;99.90
3156;DHT22;1588;50.892;7.082;2023-04-08T16:35:50;12.90;99.90
3156;DHT22;1588;50.892;7.082;2023-04-08T16:40:57;12.80;99.90
3156;DHT22;1588;50.892;7.082;2023-04-08T16:45:59;12.50;99.90
3156;DHT22;1588;50.892;7.082;2023-04-08T16:51:10;12.40;99.90
3156;DHT22;1588;50.892;7.082;2023-04-08T16:56:14;12.40;99.90
3156;DHT22;1588;50.892;7.082;2023-04-08T17:01:17;12.40;99.90
3156;DHT22;1588;50.892;7.082;2023-04-08T17:06:19;12.40;99.90
3156;DHT22;1588;50.892;7.082;2023-04-08T17:11:23;12.30;99.90
3156;DHT22;1588;50.892;7.082;2023-04-08T17:16:26;12.00;99.90
3156;DHT22;1588;50.892;7.082;2023-04-08T17:21:28;11.90;99.90
3156;DHT22;1588;50.892;7.082;2023-04-08T17:26:33;11.70;99.90
3156;DHT22;1588;50.892;7.082;2023-04-08T17:31:36;11.60;99.90
3156;DHT22;1588;50.892;7.082;2023-04-08T17:36:40;11.50;99.90
3156;DHT22;1588;50.892;7.082;2023-04-08T17:41:46;11.40;99.90
3156;DHT22;1588;50.892;7.082;2023-04-08T17:46:48;11.20;99.90
3156;DHT22;1588;50.892;7.082;2023-04-08T17:51:51;11.00;99.90
3156;DHT22;1588;50.892;7.082;2023-04-08T17:56:55;10.90;99.90
3156;DHT22;1588;50.892;7.082;2023-04-08T18:01:58;10.80;99.90
3156;DHT22;1588;50.892;7.082;2023-04-08T18:07:01;10.60;99.90
3156;DHT22;1588;50.892;7.082;2023-04-08T18:12:06;10.40;99.90
3156;DHT22;1588;50.892;7.082;2023-04-08T18:17:08;10.30;99.90
3156;DHT22;1588;50.892;7.082;2023-04-08T18:22:11;10.10;99.90
3156;DHT22;1588;50.892;7.082;2023-04-08T18:27:15;9.90;99.90
3156;DHT22;1588;50.892;7.082;2023-04-08T18:32:24;9.70;99.90
3156;DHT22;1588;50.892;7.082;2023-04-08T18:37:26;9.60;99.90
3156;DHT22;1588;50.892;7.082;2023-04-08T18:42:31;9.60;99.90
3156;DHT22;1588;50.892;7.082;2023-04-08T18:47:34;9.40;99.90
3156;DHT22;1588;50.892;7.082;2023-04-08T18:52:36;9.10;99.90
3156;DHT22;1588;50.892;7.082;2023-04-08T18:57:40;9.00;99.90
3156;DHT22;1588;50.892;7.082;2023-04-08T19:02:43;8.90;99.90
3156;DHT22;1588;50.892;7.082;2023-04-08T19:07:46;8.80;99.90
3156;DHT22;1588;50.892;7.082;2023-04-08T19:12:49;8.70;99.90
3156;DHT22;1588;50.892;7.082;2023-04-08T19:17:55;8.70;99.90
3156;DHT22;1588;50.892;7.082;2023-04-08T19:22:59;8.50;99.90
3156;DHT22;1588;50.892;7.082;2023-04-08T19:28:03;8.40;99.90
3156;DHT22;1588;50.892;7.082;2023-04-08T19:33:06;8.40;99.90
3156;DHT22;1588;50.892;7.082;2023-04-08T19:38:09;8.40;99.90
3156;DHT22;1588;50.892;7.082;2023-04-08T19:43:13;8.40;99.90
3156;DHT22;1588;50.892;7.082;2023-04-08T19:48:15;8.30;99.90
3156;DHT22;1588;50.892;7.082;2023-04-08T19:53:18;8.20;99.90
3156;DHT22;1588;50.892;7.082;2023-04-08T19:58:21;8.20;99.90
3156;DHT22;1588;50.892;7.082;2023-04-08T20:03:24;8.20;99.90
3156;DHT22;1588;50.892;7.082;2023-04-08T20:08:27;8.30;99.90
3156;DHT22;1588;50.892;7.082;2023-04-08T20:13:30;8.50;99.90
3156;DHT22;1588;50.892;7.082;2023-04-08T20:18:33;8.60;99.90
3156;DHT22;1588;50.892;7.082;2023-04-08T20:23:35;8.70;99.90
3156;DHT22;1588;50.892;7.082;2023-04-08T20:28:42;8.80;99.90
3156;DHT22;1588;50.892;7.082;2023-04-08T20:33:44;8.80;99.90
3156;DHT22;1588;50.892;7.082;2023-04-08T20:38:48;8.90;99.90
3156;DHT22;1588;50.892;7.082;2023-04-08T20:43:53;8.90;99.90
3156;DHT22;1588;50.892;7.082;2023-04-08T20:48:55;8.90;99.90
3156;DHT22;1588;50.892;7.082;2023-04-08T20:53:58;8.90;99.90
3156;DHT22;1588;50.892;7.082;2023-04-08T20:59:01;8.90;99.90
3156;DHT22;1588;50.892;7.082;2023-04-08T21:04:04;8.90;99.90
3156;DHT22;1588;50.892;7.082;2023-04-08T21:09:06;8.90;99.90
3156;DHT22;1588;50.892;7.082;2023-04-08T21:14:10;8.80;99.90
3156;DHT22;1588;50.892;7.082;2023-04-08T21:19:12;8.90;99.90
3156;DHT22;1588;50.892;7.082;2023-04-08T21:24:15;8.70;99.90
3156;DHT22;1588;50.892;7.082;2023-04-08T21:29:19;8.70;99.90
3156;DHT22;1588;50.892;7.082;2023-04-08T21:34:21;8.70;99.90
3156;DHT22;1588;50.892;7.082;2023-04-08T21:39:25;8.60;99.90
3156;DHT22;1588;50.892;7.082;2023-04-08T21:44:30;8.70;99.90
3156;DHT22;1588;50.892;7.082;2023-04-08T21:49:34;8.60;99.90
3156;DHT22;1588;50.892;7.082;2023-04-08T21:54:38;8.60;99.90
3156;DHT22;1588;50.892;7.082;2023-04-08T21:59:45;8.50;99.90
3156;DHT22;1588;50.892;7.082;2023-04-08T22:04:49;8.40;99.90
3156;DHT22;1588;50.892;7.082;2023-04-08T22:09:53;8.40;99.90
3156;DHT22;1588;50.892;7.082;2023-04-08T22:15:00;8.30;99.90
3156;DHT22;1588;50.892;7.082;2023-04-08T22:20:04;8.20;99.90
3156;DHT22;1588;50.892;7.082;2023-04-08T22:25:08;8.20;99.90
3156;DHT22;1588;50.892;7.082;2023-04-08T22:30:12;8.10;99.90
3156;DHT22;1588;50.892;7.082;2023-04-08T22:35:14;8.00;99.90
3156;DHT22;1588;50.892;7.082;2023-04-08T22:40:17;8.00;99.90
3156;DHT22;1588;50.892;7.082;2023-04-08T22:45:21;7.90;99.90
3156;DHT22;1588;50.892;7.082;2023-04-08T22:50:23;7.90;99.90
3156;DHT22;1588;50.892;7.082;2023-04-08T22:55:26;7.80;99.90
3156;DHT22;1588;50.892;7.082;2023-04-08T23:00:30;7.70;99.90
3156;DHT22;1588;50.892;7.082;2023-04-08T23:05:33;7.60;99.90
3156;DHT22;1588;50.892;7.082;2023-04-08T23:10:36;7.40;99.90
3156;DHT22;1588;50.892;7.082;2023-04-08T23:15:40;7.40;99.90
3156;DHT22;1588;50.892;7.082;2023-04-08T23:20:49;7.20;99.90
3156;DHT22;1588;50.892;7.082;2023-04-08T23:25:52;7.20;99.90
3156;DHT22;1588;50.892;7.082;2023-04-08T23:30:56;7.10;99.90
3156;DHT22;1588;50.892;7.082;2023-04-08T23:35:58;7.10;99.90
3156;DHT22;1588;50.892;7.082;2023-04-08T23:41:00;7.00;99.90
3156;DHT22;1588;50.892;7.082;2023-04-08T23:46:04;7.00;99.90
3156;DHT22;1588;50.892;7.082;2023-04-08T23:51:06;7.00;99.90
3156;DHT22;1588;50.892;7.082;2023-04-08T23:56:09;7.00;99.90
